Time;durP1;ratioP1;P1;durP2;ratioP2;P2;SDS_P1;SDS_P2;PMS_P1;PMS_P2;Temp;Humidity;BMP_temperature;BMP_pressure;BME280_temperature;BME280_humidity;BME280_pressure;Samples;Min_cycle;Max_cycle;Signal;HPM_P1;HPM_P2
2023/01/26 00:01:54;;;;;;;;;;;;;;;;;;4997085;28;19939;-75
2023/01/26 00:04:19;;;;;;;;;;;;;;;;;;4994580;28;20449;-76
2023/01/26 00:06:44;;;;;;;;;;;;;;;;;;4993714;28;19924;-76
2023/01/26 00:09:09;;;;;;;;;;;;;;;;;;4995416;28;19975;-75
2023/01/26 00:11:34;;;;;;;;;;;;;;;;;;5008380;28;19975;-76
2023/01/26 00:13:59;;;;;;;;;;;;;;;;;;5003066;28;20300;-75
2023/01/26 00:16:24;;;;;;;;;;;;;;;;;;5000790;28;19914;-75
2023/01/26 00:18:49;;;;;;;;;;;;;;;;;;4995493;28;19975;-76
2023/01/26 00:21:14;;;;;;;;;;;;;;;;;;4999004;28;19918;-76
2023/01/26 00:23:40;;;;;;;;;;;;;;;;;;5006199;28;19980;-75
2023/01/26 00:26:05;;;;;;;;;;;;;;;;;;5000577;28;20364;-76
2023/01/26 00:28:30;;;;;;;;;;;;;;;;;;4988031;28;19919;-76
2023/01/26 00:30:55;;;;;;;;;;;;;;;;;;4987300;28;19918;-76
2023/01/26 00:33:20;;;;;;;;;;;;;;;;;;4998186;28;19909;-76
2023/01/26 00:35:45;;;;;;;;;;;;;;;;;;5005864;28;19962;-76
2023/01/26 00:38:10;;;;;;;;;;;;;;;;;;5000118;28;20287;-76
2023/01/26 00:40:36;;;;;;;;;;;;;;;;;;5002019;28;19910;-75
2023/01/26 00:43:01;;;;;;;;;;;;;;;;;;5003983;28;19909;-75
2023/01/26 00:45:26;;;;;;;;;;;;;;;;;;4998842;28;20375;-76
2023/01/26 00:47:51;;;;;;;;;;;;;;;;;;4998574;28;19918;-76
2023/01/26 00:50:16;;;;;;;;;;;;;;;;;;5003173;28;20372;-75
2023/01/26 00:52:42;;;;;;;;;;;;;;;;;;5001248;28;19920;-76
2023/01/26 00:55:07;;;;;;;;;;;;;;;;;;5002891;28;19917;-75
2023/01/26 00:57:32;;;;;;;;;;;;;;;;;;4998330;28;20070;-76
2023/01/26 00:59:57;;;;;;;;;;;;;;;;;;4994860;28;19963;-76
2023/01/26 01:02:22;;;;;;;;;;;;;;;;;;4999281;28;19913;-76
2023/01/26 01:04:47;;;;;;;;;;;;;;;;;;5000713;28;19921;-76
2023/01/26 01:07:12;;;;;;;;;;;;;;;;;;4999195;28;19913;-76
2023/01/26 01:09:37;;;;;;;;;;;;;;;;;;4999367;28;21552;-76
2023/01/26 01:12:02;;;;;;;;;;;;;;;;;;4997722;28;19917;-76
2023/01/26 01:14:27;;;;;;;;;;;;;;;;;;5015159;28;19956;-76
2023/01/26 01:16:52;;;;;;;;;;;;;;;;;;4997822;28;20711;-75
2023/01/26 01:19:18;;;;;;;;;;;;;;;;;;4999479;28;20469;-76
2023/01/26 01:21:43;;;;;;;;;;;;;;;;;;5009568;28;19913;-76
2023/01/26 01:24:08;;;;;;;;;;;;;;;;;;4997803;28;19967;-76
2023/01/26 01:26:33;;;;;;;;;;;;;;;;;;4996913;28;19928;-75
2023/01/26 01:28:58;;;;;;;;;;;;;;;;;;4993129;28;19909;-75
2023/01/26 01:31:23;;;;;;;;;;;;;;;;;;4994504;28;20328;-76
2023/01/26 01:33:48;;;;;;;;;;;;;;;;;;4995453;28;19956;-76
2023/01/26 01:36:13;;;;;;;;;;;;;;;;;;4995797;28;20003;-76
2023/01/26 01:38:39;;;;;;;;;;;;;;;;;;5000122;28;19933;-76
2023/01/26 01:41:04;;;;;;;;;;;;;;;;;;4995077;28;20478;-76
2023/01/26 01:43:29;;;;;;;;;;;;;;;;;;4993839;28;19960;-76
2023/01/26 01:45:54;;;;;;;;;;;;;;;;;;4993461;28;19925;-76
2023/01/26 01:48:19;;;;;;;;;;;;;;;;;;4994865;28;19917;-75
2023/01/26 01:50:44;;;;;;;;;;;;;;;;;;4994907;28;19913;-76
2023/01/26 01:53:09;;;;;;;;;;;;;;;;;;5010866;28;20260;-76
2023/01/26 01:55:34;;;;;;;;;;;;;;;;;;4993101;28;20364;-76
2023/01/26 01:57:59;;;;;;;;;;;;;;;;;;4992896;28;20020;-76
2023/01/26 02:00:24;;;;;;;;;;;;;;;;;;4991600;28;19959;-76
2023/01/26 02:03:09;;;;;;;;;;;;;;;;;;5012972;28;19926;-75
2023/01/26 02:05:34;;;;;;;;;;;;;;;;;;4998637;28;19917;-76
2023/01/26 02:07:59;;;;;;;;;;;;;;;;;;4997329;28;19919;-76
2023/01/26 02:10:25;;;;;;;;;;;;;;;;;;4999620;28;19924;-76
2023/01/26 02:12:50;;;;;;;;;;;;;;;;;;5000490;28;19996;-76
2023/01/26 02:15:15;;;;;;;;;;;;;;;;;;5000848;28;20305;-76
2023/01/26 02:17:40;;;;;;;;;;;;;;;;;;4998457;28;20127;-76
2023/01/26 02:20:05;;;;;;;;;;;;;;;;;;4996166;28;19913;-76
2023/01/26 02:22:30;;;;;;;;;;;;;;;;;;5000097;28;19918;-75
2023/01/26 02:24:55;;;;;;;;;;;;;;;;;;5001867;28;19921;-76
2023/01/26 02:27:20;;;;;;;;;;;;;;;;;;4996583;28;19913;-76
2023/01/26 02:29:46;;;;;;;;;;;;;;;;;;5000572;28;19924;-75
2023/01/26 02:32:11;;;;;;;;;;;;;;;;;;5000416;28;19913;-75
2023/01/26 02:34:36;;;;;;;;;;;;;;;;;;4998375;28;19960;-76
2023/01/26 02:37:01;;;;;;;;;;;;;;;;;;5004868;28;19913;-76
2023/01/26 02:39:26;;;;;;;;;;;;;;;;;;4992951;28;20326;-76
2023/01/26 02:44:35;;;;;;;;;;;;;;;;;;4998414;28;20015;-76
2023/01/26 02:47:00;;;;;;;;;;;;;;;;;;4996797;28;19913;-76
2023/01/26 02:52:09;;;;;;;;;;;;;;;;;;4997529;28;20387;-76
2023/01/26 02:57:17;;;;;;;;;;;;;;;;;;4997710;28;19951;-76
2023/01/26 02:59:43;;;;;;;;;;;;;;;;;;4994329;28;19913;-76
2023/01/26 03:02:08;;;;;;;;;;;;;;;;;;4996789;28;19916;-76
2023/01/26 03:04:33;;;;;;;;;;;;;;;;;;4995935;28;19921;-75
2023/01/26 03:06:58;;;;;;;;;;;;;;;;;;4994176;28;19914;-76
2023/01/26 03:09:23;;;;;;;;;;;;;;;;;;5009159;28;20102;-77
2023/01/26 03:11:48;;;;;;;;;;;;;;;;;;4999474;28;20356;-76
2023/01/26 03:14:13;;;;;;;;;;;;;;;;;;4998306;28;19928;-75
2023/01/26 03:16:38;;;;;;;;;;;;;;;;;;4995814;28;19914;-76
2023/01/26 03:29:40;;;;;;;;;;;;;;;;;;4995283;28;19928;-76
2023/01/26 03:32:05;;;;;;;;;;;;;;;;;;4995049;28;21740;-75
2023/01/26 03:34:30;;;;;;;;;;;;;;;;;;5010790;28;19952;-76
2023/01/26 03:36:55;;;;;;;;;;;;;;;;;;4995001;28;20355;-76
2023/01/26 03:58:29;;;;;;;;;;;;;;;;;;5016535;28;19928;-76
2023/01/26 04:00:54;;;;;;;;;;;;;;;;;;5015807;28;19913;-76
2023/01/26 04:08:47;;;;;;;;;;;;;;;;;;5016879;28;19920;-75
2023/01/26 04:11:12;;;;;;;;;;;;;;;;;;5018828;28;19919;-76
2023/01/26 04:21:49;;;;;;;;;;;;;;;;;;5028829;28;20416;-75
2023/01/26 04:24:16;;;;;;;;;;;;;;;;;;5023741;28;19959;-75
2023/01/26 04:26:41;;;;;;;;;;;;;;;;;;5013006;28;19913;-76
2023/01/26 04:29:06;;;;;;;;;;;;;;;;;;5012008;28;20379;-76
2023/01/26 04:31:32;;;;;;;;;;;;;;;;;;5018598;28;20283;-75
2023/01/26 04:33:57;;;;;;;;;;;;;;;;;;5019054;28;20264;-75
2023/01/26 04:36:22;;;;;;;;;;;;;;;;;;5019027;28;19912;-75
2023/01/26 04:38:48;;;;;;;;;;;;;;;;;;5019363;28;19924;-75
2023/01/26 04:41:13;;;;;;;;;;;;;;;;;;5018870;28;19917;-75
2023/01/26 04:43:38;;;;;;;;;;;;;;;;;;5017097;28;19924;-75
2023/01/26 04:46:03;;;;;;;;;;;;;;;;;;5023541;28;19917;-75
2023/01/26 04:48:28;;;;;;;;;;;;;;;;;;5020080;28;20532;-75
2023/01/26 04:50:53;;;;;;;;;;;;;;;;;;5019134;28;19916;-75
2023/01/26 04:53:18;;;;;;;;;;;;;;;;;;5017755;28;19954;-75
2023/01/26 04:55:43;;;;;;;;;;;;;;;;;;5018848;28;19913;-75
2023/01/26 04:58:09;;;;;;;;;;;;;;;;;;5030535;28;20028;-75
2023/01/26 05:00:34;;;;;;;;;;;;;;;;;;5018100;28;20370;-75
2023/01/26 05:02:59;;;;;;;;;;;;;;;;;;5020333;28;20003;-75
2023/01/26 05:05:24;;;;;;;;;;;;;;;;;;5017134;28;19919;-75
2023/01/26 05:07:49;;;;;;;;;;;;;;;;;;5017309;28;19963;-76
2023/01/26 05:10:14;;;;;;;;;;;;;;;;;;5025780;28;19913;-75
2023/01/26 05:12:41;;;;;;;;;;;;;;;;;;5016898;28;19917;-75
2023/01/26 05:15:06;;;;;;;;;;;;;;;;;;5015645;28;20334;-75
2023/01/26 05:17:31;;;;;;;;;;;;;;;;;;5030900;28;20337;-75
2023/01/26 05:19:56;;;;;;;;;;;;;;;;;;5018330;28;20638;-75
2023/01/26 05:22:21;;;;;;;;;;;;;;;;;;5014450;28;20022;-75
2023/01/26 05:24:47;;;;;;;;;;;;;;;;;;5010139;28;19917;-75
2023/01/26 05:27:21;;;;;;;;;;;;;;;;;;5033070;28;19920;-76
2023/01/26 05:29:46;;;;;;;;;;;;;;;;;;5018168;28;19917;-75
2023/01/26 05:32:11;;;;;;;;;;;;;;;;;;5019313;28;19963;-76
2023/01/26 05:34:36;;;;;;;;;;;;;;;;;;5019996;28;19917;-75
2023/01/26 05:37:01;;;;;;;;;;;;;;;;;;5020709;28;19917;-75
2023/01/26 05:39:27;;;;;;;;;;;;;;;;;;5022363;28;19917;-75
2023/01/26 05:41:54;;;;;;;;;;;;;;;;;;5023942;28;19913;-75
2023/01/26 05:44:20;;;;;;;;;;;;;;;;;;5021178;28;19924;-76
2023/01/26 05:46:45;;;;;;;;;;;;;;;;;;5027983;28;19968;-76
2023/01/26 05:49:11;;;;;;;;;;;;;;;;;;5025425;28;20044;-76
2023/01/26 05:51:36;;;;;;;;;;;;;;;;;;5024062;28;19913;-76
2023/01/26 05:54:01;;;;;;;;;;;;;;;;;;5020964;28;19979;-76
2023/01/26 05:56:26;;;;;;;;;;;;;;;;;;5021819;28;20363;-76
2023/01/26 05:58:51;;;;;;;;;;;;;;;;;;5023632;28;20016;-76
2023/01/26 06:01:16;;;;;;;;;;;;;;;;;;5019007;28;19923;-76
2023/01/26 06:03:41;;;;;;;;;;;;;;;;;;5026502;28;19913;-76
2023/01/26 06:06:06;;;;;;;;;;;;;;;;;;5022743;28;19919;-76
2023/01/26 06:08:31;;;;;;;;;;;;;;;;;;5024496;28;20045;-76
2023/01/26 06:10:56;;;;;;;;;;;;;;;;;;5024833;28;20291;-76
2023/01/26 06:13:21;;;;;;;;;;;;;;;;;;5023275;28;19909;-77
2023/01/26 06:15:46;;;;;;;;;;;;;;;;;;5025495;28;19913;-76
2023/01/26 06:18:12;;;;;;;;;;;;;;;;;;5022020;28;19971;-77
2023/01/26 06:20:37;;;;;;;;;;;;;;;;;;5024585;28;19917;-76
2023/01/26 06:23:02;;;;;;;;;;;;;;;;;;5026051;28;19937;-76
2023/01/26 06:25:27;;;;;;;;;;;;;;;;;;5021937;28;19913;-76
2023/01/26 06:27:53;;;;;;;;;;;;;;;;;;5021934;28;20685;-76
2023/01/26 06:30:19;;;;;;;;;;;;;;;;;;5020299;28;19913;-77
2023/01/26 06:32:44;;;;;;;;;;;;;;;;;;5023491;28;19962;-77
2023/01/26 06:35:09;;;;;;;;;;;;;;;;;;5022364;28;19913;-77
2023/01/26 06:37:34;;;;;;;;;;;;;;;;;;5021700;28;19924;-77
2023/01/26 06:39:59;;;;;;;;;;;;;;;;;;5025227;28;19963;-77
2023/01/26 06:42:24;;;;;;;;;;;;;;;;;;5024703;28;19917;-77
2023/01/26 06:44:49;;;;;;;;;;;;;;;;;;5021028;28;20274;-77
2023/01/26 06:47:15;;;;;;;;;;;;;;;;;;5023424;28;20008;-77
2023/01/26 06:49:40;;;;;;;;;;;;;;;;;;5025876;28;19913;-77
2023/01/26 06:52:05;;;;;;;;;;;;;;;;;;5024751;28;19920;-77
2023/01/26 06:54:30;;;;;;;;;;;;;;;;;;5020014;28;19921;-77
2023/01/26 06:56:55;;;;;;;;;;;;;;;;;;5023726;28;20270;-77
2023/01/26 06:59:20;;;;;;;;;;;;;;;;;;5020902;28;19928;-77
2023/01/26 07:01:48;;;;;;;;;;;;;;;;;;5020269;28;19913;-76
2023/01/26 07:04:14;;;;;;;;;;;;;;;;;;5024836;28;19916;-76
2023/01/26 07:06:39;;;;;;;;;;;;;;;;;;5021103;28;19913;-77
2023/01/26 07:09:04;;;;;;;;;;;;;;;;;;5017895;28;20007;-76
2023/01/26 07:11:31;;;;;;;;;;;;;;;;;;5025764;28;20519;-76
2023/01/26 07:13:56;;;;;;;;;;;;;;;;;;5025431;28;19909;-76
2023/01/26 07:16:21;;;;;;;;;;;;;;;;;;5023366;28;19916;-76
2023/01/26 07:18:46;;;;;;;;;;;;;;;;;;5022889;28;19955;-76
2023/01/26 07:21:11;;;;;;;;;;;;;;;;;;5026315;28;19905;-76
2023/01/26 07:23:36;;;;;;;;;;;;;;;;;;5025088;28;20377;-77
2023/01/26 07:26:01;;;;;;;;;;;;;;;;;;5018435;28;20410;-77
2023/01/26 07:28:29;;;;;;;;;;;;;;;;;;5019811;28;19959;-77
2023/01/26 07:30:54;;;;;;;;;;;;;;;;;;5023232;28;19996;-77
2023/01/26 07:33:19;;;;;;;;;;;;;;;;;;5023655;28;20016;-76
2023/01/26 07:35:44;;;;;;;;;;;;;;;;;;5021379;28;19923;-77
2023/01/26 07:38:09;;;;;;;;;;;;;;;;;;5022729;28;19980;-77
2023/01/26 07:40:34;;;;;;;;;;;;;;;;;;5025725;28;19913;-77
2023/01/26 07:42:59;;;;;;;;;;;;;;;;;;5021965;28;20394;-77
2023/01/26 07:45:24;;;;;;;;;;;;;;;;;;5025784;28;20008;-77
2023/01/26 07:47:49;;;;;;;;;;;;;;;;;;5023246;28;19919;-76
2023/01/26 07:50:15;;;;;;;;;;;;;;;;;;5019641;28;19918;-77
2023/01/26 07:52:40;;;;;;;;;;;;;;;;;;5015588;28;19959;-77
2023/01/26 07:55:05;;;;;;;;;;;;;;;;;;5019833;28;19913;-76
2023/01/26 07:57:30;;;;;;;;;;;;;;;;;;5018672;28;19971;-76
2023/01/26 07:59:55;;;;;;;;;;;;;;;;;;5017526;28;20478;-76
2023/01/26 08:02:21;;;;;;;;;;;;;;;;;;5016421;28;20264;-76
2023/01/26 08:04:46;;;;;;;;;;;;;;;;;;5025043;28;20363;-76
2023/01/26 08:07:11;;;;;;;;;;;;;;;;;;5024956;28;19924;-76
2023/01/26 08:09:36;;;;;;;;;;;;;;;;;;5020609;28;19919;-76
2023/01/26 08:12:02;;;;;;;;;;;;;;;;;;5022791;28;20291;-75
2023/01/26 08:14:27;;;;;;;;;;;;;;;;;;5023200;28;19917;-76
2023/01/26 08:16:52;;;;;;;;;;;;;;;;;;5026760;28;19924;-76
2023/01/26 08:19:17;;;;;;;;;;;;;;;;;;5023134;28;19921;-76
2023/01/26 08:21:42;;;;;;;;;;;;;;;;;;5025555;28;19913;-75
2023/01/26 08:24:08;;;;;;;;;;;;;;;;;;5027696;28;19939;-76
2023/01/26 08:26:33;;;;;;;;;;;;;;;;;;5021970;28;20006;-76
2023/01/26 08:28:58;;;;;;;;;;;;;;;;;;5018902;28;20014;-76
2023/01/26 08:31:24;;;;;;;;;;;;;;;;;;5024562;28;19962;-76
2023/01/26 08:33:49;;;;;;;;;;;;;;;;;;5027039;28;20314;-75
2023/01/26 08:36:14;;;;;;;;;;;;;;;;;;5022525;28;20260;-76
2023/01/26 08:38:39;;;;;;;;;;;;;;;;;;5027694;28;20358;-76
2023/01/26 08:41:05;;;;;;;;;;;;;;;;;;5022779;28;19946;-76
2023/01/26 08:43:30;;;;;;;;;;;;;;;;;;5024021;28;19920;-75
2023/01/26 08:45:55;;;;;;;;;;;;;;;;;;5022089;28;19913;-76
2023/01/26 08:48:20;;;;;;;;;;;;;;;;;;5027473;28;19936;-75
2023/01/26 08:50:45;;;;;;;;;;;;;;;;;;5025460;28;20363;-75
2023/01/26 08:53:10;;;;;;;;;;;;;;;;;;5025996;28;19948;-75
2023/01/26 08:55:35;;;;;;;;;;;;;;;;;;5040000;28;19913;-76
2023/01/26 08:58:00;;;;;;;;;;;;;;;;;;5030782;28;19912;-76
2023/01/26 09:00:25;;;;;;;;;;;;;;;;;;5021957;28;19913;-76
2023/01/26 09:02:51;;;;;;;;;;;;;;;;;;5022913;28;19920;-76
2023/01/26 09:05:16;;;;;;;;;;;;;;;;;;5021729;28;20013;-75
2023/01/26 09:07:41;;;;;;;;;;;;;;;;;;5021416;28;19940;-75
2023/01/26 09:10:06;;;;;;;;;;;;;;;;;;5023705;28;19916;-75
2023/01/26 09:12:31;;;;;;;;;;;;;;;;;;5036556;28;19912;-76
2023/01/26 09:14:56;;;;;;;;;;;;;;;;;;5029883;28;20469;-75
2023/01/26 09:17:21;;;;;;;;;;;;;;;;;;5019556;28;19959;-75
2023/01/26 09:19:46;;;;;;;;;;;;;;;;;;5026572;28;19917;-75
2023/01/26 09:22:11;;;;;;;;;;;;;;;;;;5026719;28;20285;-75
2023/01/26 09:24:37;;;;;;;;;;;;;;;;;;5032806;28;19913;-75
2023/01/26 09:27:02;;;;;;;;;;;;;;;;;;5025020;28;19940;-76
2023/01/26 09:29:27;;;;;;;;;;;;;;;;;;5026670;28;20406;-75
2023/01/26 09:31:52;;;;;;;;;;;;;;;;;;5030433;28;19964;-76
2023/01/26 09:34:17;;;;;;;;;;;;;;;;;;5027497;28;20428;-75
2023/01/26 09:36:43;;;;;;;;;;;;;;;;;;5028947;28;19906;-75
2023/01/26 09:39:08;;;;;;;;;;;;;;;;;;5025574;28;19940;-75
2023/01/26 09:41:33;;;;;;;;;;;;;;;;;;5029766;28;20355;-75
2023/01/26 09:43:58;;;;;;;;;;;;;;;;;;5024092;28;19917;-76
2023/01/26 09:46:24;;;;;;;;;;;;;;;;;;5023015;28;20406;-75
2023/01/26 09:48:50;;;;;;;;;;;;;;;;;;5027089;28;19919;-75
2023/01/26 09:51:15;;;;;;;;;;;;;;;;;;5020448;28;19913;-75
2023/01/26 09:53:40;;;;;;;;;;;;;;;;;;5026681;28;19920;-75
2023/01/26 09:56:05;;;;;;;;;;;;;;;;;;5029699;28;19911;-76
2023/01/26 09:58:30;;;;;;;;;;;;;;;;;;5021883;28;19923;-76
2023/01/26 10:00:55;;;;;;;;;;;;;;;;;;5023412;28;19913;-76
2023/01/26 10:03:20;;;;;;;;;;;;;;;;;;5025913;28;19951;-76
2023/01/26 10:05:47;;;;;;;;;;;;;;;;;;5023560;28;20384;-76
2023/01/26 10:08:12;;;;;;;;;;;;;;;;;;5028264;28;19920;-76
2023/01/26 10:10:37;;;;;;;;;;;;;;;;;;5025069;28;19913;-76
2023/01/26 10:13:02;;;;;;;;;;;;;;;;;;5025248;28;19909;-76
2023/01/26 10:15:27;;;;;;;;;;;;;;;;;;5025754;28;19917;-76
2023/01/26 10:17:53;;;;;;;;;;;;;;;;;;5027782;28;19913;-76
2023/01/26 10:20:18;;;;;;;;;;;;;;;;;;5023981;28;19951;-76
2023/01/26 10:22:44;;;;;;;;;;;;;;;;;;5019467;28;19975;-76
2023/01/26 10:25:09;;;;;;;;;;;;;;;;;;5020983;28;20540;-76
2023/01/26 10:27:34;;;;;;;;;;;;;;;;;;5024696;28;19999;-76
2023/01/26 10:29:59;;;;;;;;;;;;;;;;;;5021115;28;20275;-76
2023/01/26 10:32:24;;;;;;;;;;;;;;;;;;5023225;28;19912;-76
2023/01/26 10:34:50;;;;;;;;;;;;;;;;;;5024961;28;19913;-76
2023/01/26 10:37:15;;;;;;;;;;;;;;;;;;5027796;28;19909;-77
2023/01/26 10:39:40;;;;;;;;;;;;;;;;;;5029157;28;19921;-76
2023/01/26 10:42:05;;;;;;;;;;;;;;;;;;5025073;28;20003;-76
2023/01/26 10:44:30;;;;;;;;;;;;;;;;;;5027046;28;20312;-76
2023/01/26 10:46:55;;;;;;;;;;;;;;;;;;5025743;28;20359;-76
2023/01/26 10:49:21;;;;;;;;;;;;;;;;;;5025093;28;19912;-76
2023/01/26 10:51:46;;;;;;;;;;;;;;;;;;5021420;28;20384;-76
2023/01/26 10:54:11;;;;;;;;;;;;;;;;;;5020052;28;19913;-76
2023/01/26 10:56:36;;;;;;;;;;;;;;;;;;5027880;28;19912;-76
2023/01/26 10:59:02;;;;;;;;;;;;;;;;;;5022115;28;20267;-76
2023/01/26 11:01:27;;;;;;;;;;;;;;;;;;5014673;28;20357;-76
2023/01/26 11:03:53;;;;;;;;;;;;;;;;;;5021336;28;20346;-77
2023/01/26 11:06:18;;;;;;;;;;;;;;;;;;5024942;28;19921;-77
2023/01/26 11:08:43;;;;;;;;;;;;;;;;;;5022663;28;19917;-77
2023/01/26 11:11:09;;;;;;;;;;;;;;;;;;5014950;28;20197;-77
2023/01/26 11:13:34;;;;;;;;;;;;;;;;;;5025743;28;19913;-77
2023/01/26 11:15:59;;;;;;;;;;;;;;;;;;5025472;28;19916;-77
2023/01/26 11:18:24;;;;;;;;;;;;;;;;;;5023510;28;19916;-77
2023/01/26 11:20:50;;;;;;;;;;;;;;;;;;5024534;28;20287;-77
2023/01/26 11:23:15;;;;;;;;;;;;;;;;;;5022452;28;20000;-77
2023/01/26 11:25:40;;;;;;;;;;;;;;;;;;5021027;28;19913;-77
2023/01/26 11:28:05;;;;;;;;;;;;;;;;;;5022718;28;19955;-78
2023/01/26 11:30:30;;;;;;;;;;;;;;;;;;5017258;28;20332;-78
2023/01/26 11:32:55;;;;;;;;;;;;;;;;;;5023777;28;19913;-76
2023/01/26 11:35:20;;;;;;;;;;;;;;;;;;5026278;28;19913;-78
2023/01/26 11:37:45;;;;;;;;;;;;;;;;;;5021310;28;19920;-78
2023/01/26 11:40:10;;;;;;;;;;;;;;;;;;5024871;28;20320;-78
2023/01/26 11:42:36;;;;;;;;;;;;;;;;;;5022087;28;19919;-78
2023/01/26 11:45:01;;;;;;;;;;;;;;;;;;5024551;28;19917;-78
2023/01/26 11:47:26;;;;;;;;;;;;;;;;;;5024950;28;19909;-78
2023/01/26 11:49:51;;;;;;;;;;;;;;;;;;5020437;28;19917;-78
2023/01/26 11:52:16;;;;;;;;;;;;;;;;;;5023934;28;19913;-78
2023/01/26 11:54:41;;;;;;;;;;;;;;;;;;5024183;28;19913;-78
2023/01/26 11:57:06;;;;;;;;;;;;;;;;;;5023871;28;19913;-78
2023/01/26 11:59:31;;;;;;;;;;;;;;;;;;5020564;28;19986;-78
2023/01/26 12:01:56;;;;;;;;;;;;;;;;;;5024378;28;20382;-78
2023/01/26 12:04:22;;;;;;;;;;;;;;;;;;5025342;28;19913;-78
2023/01/26 12:06:47;;;;;;;;;;;;;;;;;;5022754;28;20351;-78
2023/01/26 12:09:17;;;;;;;;;;;;;;;;;;5018311;28;19913;-77
2023/01/26 12:11:42;;;;;;;;;;;;;;;;;;5022949;28;19928;-78
2023/01/26 12:14:07;;;;;;;;;;;;;;;;;;5025638;28;19913;-77
2023/01/26 12:16:32;;;;;;;;;;;;;;;;;;5023496;28;19966;-77
2023/01/26 12:18:58;;;;;;;;;;;;;;;;;;5022858;28;19916;-77
2023/01/26 12:21:23;;;;;;;;;;;;;;;;;;5023618;28;19909;-77
2023/01/26 12:23:48;;;;;;;;;;;;;;;;;;5019612;28;20375;-77
2023/01/26 12:26:13;;;;;;;;;;;;;;;;;;5018636;28;19920;-77
2023/01/26 12:28:38;;;;;;;;;;;;;;;;;;5017669;28;20354;-77
2023/01/26 12:31:03;;;;;;;;;;;;;;;;;;5023457;28;19908;-77
2023/01/26 12:33:29;;;;;;;;;;;;;;;;;;5022801;28;20390;-77
2023/01/26 12:35:54;;;;;;;;;;;;;;;;;;5023548;28;19913;-77
2023/01/26 12:38:19;;;;;;;;;;;;;;;;;;5016452;28;19917;-77
2023/01/26 12:40:44;;;;;;;;;;;;;;;;;;5022832;28;20418;-77
2023/01/26 12:43:09;;;;;;;;;;;;;;;;;;5025087;28;19944;-77
2023/01/26 12:45:34;;;;;;;;;;;;;;;;;;5021957;28;19923;-76
2023/01/26 12:47:59;;;;;;;;;;;;;;;;;;5022114;28;19913;-77
2023/01/26 12:50:24;;;;;;;;;;;;;;;;;;5023466;28;20395;-77
2023/01/26 12:52:49;;;;;;;;;;;;;;;;;;5025830;28;19916;-77
2023/01/26 12:55:14;;;;;;;;;;;;;;;;;;5018835;28;20348;-78
2023/01/26 12:57:41;;;;;;;;;;;;;;;;;;5024474;28;19912;-78
2023/01/26 13:00:08;;;;;;;;;;;;;;;;;;5022154;28;19923;-77
2023/01/26 13:02:34;;;;;;;;;;;;;;;;;;5019829;28;19999;-77
2023/01/26 13:04:59;;;;;;;;;;;;;;;;;;5020785;28;20373;-77
2023/01/26 13:07:24;;;;;;;;;;;;;;;;;;5029930;28;19920;-77
2023/01/26 13:09:49;;;;;;;;;;;;;;;;;;5022174;28;20244;-77
2023/01/26 13:12:14;;;;;;;;;;;;;;;;;;5023744;28;20380;-77
2023/01/26 13:14:39;;;;;;;;;;;;;;;;;;5024502;28;19916;-76
2023/01/26 13:17:05;;;;;;;;;;;;;;;;;;5021317;28;19947;-76
2023/01/26 13:19:30;;;;;;;;;;;;;;;;;;5016242;28;19916;-77
2023/01/26 13:21:55;;;;;;;;;;;;;;;;;;5017425;28;20274;-78
2023/01/26 13:24:20;;;;;;;;;;;;;;;;;;5023350;28;19916;-77
2023/01/26 13:26:46;;;;;;;;;;;;;;;;;;5015290;28;19913;-77
2023/01/26 13:29:11;;;;;;;;;;;;;;;;;;5021951;28;20440;-77
2023/01/26 13:31:36;;;;;;;;;;;;;;;;;;5019874;28;19971;-80
2023/01/26 13:34:01;;;;;;;;;;;;;;;;;;5018555;28;20248;-77
2023/01/26 13:36:26;;;;;;;;;;;;;;;;;;5019661;28;19963;-78
2023/01/26 13:38:51;;;;;;;;;;;;;;;;;;5016746;28;19955;-78
2023/01/26 13:41:16;;;;;;;;;;;;;;;;;;5021994;28;20334;-78
2023/01/26 13:43:41;;;;;;;;;;;;;;;;;;5021210;28;19928;-78
2023/01/26 13:46:06;;;;;;;;;;;;;;;;;;5020774;28;19959;-76
2023/01/26 13:48:31;;;;;;;;;;;;;;;;;;5022754;28;19915;-76
2023/01/26 13:50:57;;;;;;;;;;;;;;;;;;5024957;28;19920;-76
2023/01/26 13:53:22;;;;;;;;;;;;;;;;;;5022067;28;19909;-76
2023/01/26 13:55:47;;;;;;;;;;;;;;;;;;5021703;28;20328;-76
2023/01/26 13:58:12;;;;;;;;;;;;;;;;;;5020791;28;19952;-77
2023/01/26 14:00:37;;;;;;;;;;;;;;;;;;5022140;28;20086;-77
2023/01/26 14:03:02;;;;;;;;;;;;;;;;;;5023687;28;20348;-77
2023/01/26 14:05:27;;;;;;;;;;;;;;;;;;5025337;28;20354;-78
2023/01/26 14:07:52;;;;;;;;;;;;;;;;;;5020236;28;20011;-76
2023/01/26 14:10:17;;;;;;;;;;;;;;;;;;5021091;28;20376;-77
2023/01/26 14:12:42;;;;;;;;;;;;;;;;;;5021045;28;19910;-77
2023/01/26 14:15:08;;;;;;;;;;;;;;;;;;5027450;28;19916;-77
2023/01/26 14:17:33;;;;;;;;;;;;;;;;;;5024208;28;19913;-77
2023/01/26 14:19:58;;;;;;;;;;;;;;;;;;5022151;28;20039;-77
2023/01/26 14:22:24;;;;;;;;;;;;;;;;;;5026799;28;19913;-77
2023/01/26 14:24:49;;;;;;;;;;;;;;;;;;5023366;28;19924;-77
2023/01/26 14:27:14;;;;;;;;;;;;;;;;;;5023097;28;19921;-78
2023/01/26 14:29:39;;;;;;;;;;;;;;;;;;5021749;28;19913;-77
2023/01/26 14:32:04;;;;;;;;;;;;;;;;;;5022803;28;19913;-77
2023/01/26 14:34:29;;;;;;;;;;;;;;;;;;5019082;28;20012;-76
2023/01/26 14:36:54;;;;;;;;;;;;;;;;;;5026885;28;19909;-77
2023/01/26 14:39:19;;;;;;;;;;;;;;;;;;5025114;28;20351;-76
2023/01/26 14:41:45;;;;;;;;;;;;;;;;;;5020636;28;20391;-76
2023/01/26 14:44:10;;;;;;;;;;;;;;;;;;5025132;28;19913;-77
2023/01/26 14:46:35;;;;;;;;;;;;;;;;;;5024209;28;19921;-77
2023/01/26 14:49:00;;;;;;;;;;;;;;;;;;5022974;28;19913;-77
2023/01/26 14:51:25;;;;;;;;;;;;;;;;;;5022228;28;20323;-77
2023/01/26 14:53:50;;;;;;;;;;;;;;;;;;5023449;28;19916;-77
2023/01/26 14:56:15;;;;;;;;;;;;;;;;;;5021591;28;19915;-77
2023/01/26 14:58:40;;;;;;;;;;;;;;;;;;5024754;28;19913;-77
2023/01/26 15:01:05;;;;;;;;;;;;;;;;;;5020891;28;20004;-77
2023/01/26 15:03:31;;;;;;;;;;;;;;;;;;5025640;28;19913;-76
2023/01/26 15:05:56;;;;;;;;;;;;;;;;;;5021096;28;19924;-77
2023/01/26 15:08:21;;;;;;;;;;;;;;;;;;5021164;28;19913;-77
2023/01/26 15:10:46;;;;;;;;;;;;;;;;;;5022187;28;19920;-77
2023/01/26 15:13:11;;;;;;;;;;;;;;;;;;5025982;28;19912;-77
2023/01/26 15:15:36;;;;;;;;;;;;;;;;;;5021850;28;20477;-77
2023/01/26 15:18:01;;;;;;;;;;;;;;;;;;5021778;28;19912;-77
2023/01/26 15:20:26;;;;;;;;;;;;;;;;;;5024966;28;19940;-77
2023/01/26 15:22:51;;;;;;;;;;;;;;;;;;5022626;28;19913;-77
2023/01/26 15:25:17;;;;;;;;;;;;;;;;;;5021996;28;19920;-77
2023/01/26 15:27:42;;;;;;;;;;;;;;;;;;5022603;28;19914;-77
2023/01/26 15:30:08;;;;;;;;;;;;;;;;;;5018942;28;19920;-76
2023/01/26 15:32:33;;;;;;;;;;;;;;;;;;5014997;28;19920;-77
2023/01/26 15:34:58;;;;;;;;;;;;;;;;;;5025176;28;19913;-77
2023/01/26 15:37:23;;;;;;;;;;;;;;;;;;5019891;28;19920;-76
2023/01/26 15:39:48;;;;;;;;;;;;;;;;;;5023560;28;20412;-77
2023/01/26 15:42:13;;;;;;;;;;;;;;;;;;5026650;28;19983;-78
2023/01/26 15:44:38;;;;;;;;;;;;;;;;;;5025982;28;20292;-77
2023/01/26 15:47:03;;;;;;;;;;;;;;;;;;5021788;28;20007;-77
2023/01/26 15:49:28;;;;;;;;;;;;;;;;;;5018327;28;20284;-77
2023/01/26 15:51:54;;;;;;;;;;;;;;;;;;5019050;28;19913;-77
2023/01/26 15:54:19;;;;;;;;;;;;;;;;;;5022986;28;20312;-78
2023/01/26 15:56:44;;;;;;;;;;;;;;;;;;5022638;28;20364;-77
2023/01/26 15:59:09;;;;;;;;;;;;;;;;;;5017936;28;19921;-77
2023/01/26 16:01:34;;;;;;;;;;;;;;;;;;5020298;28;19996;-78
2023/01/26 16:03:59;;;;;;;;;;;;;;;;;;5024083;28;19917;-78
2023/01/26 16:06:24;;;;;;;;;;;;;;;;;;5019481;28;19913;-78
2023/01/26 16:08:50;;;;;;;;;;;;;;;;;;5018994;28;19919;-77
2023/01/26 16:11:15;;;;;;;;;;;;;;;;;;5021598;28;19909;-77
2023/01/26 16:13:42;;;;;;;;;;;;;;;;;;5022604;28;19913;-78
2023/01/26 16:16:08;;;;;;;;;;;;;;;;;;5020902;28;19979;-77
2023/01/26 16:18:33;;;;;;;;;;;;;;;;;;5020372;28;20003;-79
2023/01/26 16:20:58;;;;;;;;;;;;;;;;;;5022356;28;19913;-78
2023/01/26 16:23:23;;;;;;;;;;;;;;;;;;5018251;28;19913;-77
2023/01/26 16:25:48;;;;;;;;;;;;;;;;;;5022128;28;19952;-78
2023/01/26 16:28:14;;;;;;;;;;;;;;;;;;5020731;28;19912;-77
2023/01/26 16:30:39;;;;;;;;;;;;;;;;;;5016552;28;20377;-78
2023/01/26 16:33:04;;;;;;;;;;;;;;;;;;5021701;28;19996;-77
2023/01/26 16:35:29;;;;;;;;;;;;;;;;;;5020530;28;20354;-78
2023/01/26 16:37:54;;;;;;;;;;;;;;;;;;5019210;28;20475;-78
2023/01/26 16:40:19;;;;;;;;;;;;;;;;;;5021378;28;19913;-78
2023/01/26 16:42:44;;;;;;;;;;;;;;;;;;5024701;28;19920;-77
2023/01/26 16:45:09;;;;;;;;;;;;;;;;;;5019846;28;19917;-78
2023/01/26 16:47:35;;;;;;;;;;;;;;;;;;5021773;28;20302;-78
2023/01/26 16:50:00;;;;;;;;;;;;;;;;;;5023904;28;19913;-78
2023/01/26 16:52:25;;;;;;;;;;;;;;;;;;5022741;28;19917;-77
2023/01/26 16:54:50;;;;;;;;;;;;;;;;;;5022779;28;20283;-78
2023/01/26 16:57:15;;;;;;;;;;;;;;;;;;5008264;28;19944;-78
2023/01/26 16:59:40;;;;;;;;;;;;;;;;;;5022144;28;19940;-77
2023/01/26 17:02:05;;;;;;;;;;;;;;;;;;5020279;28;20355;-78
2023/01/26 17:04:30;;;;;;;;;;;;;;;;;;5023688;28;19912;-79
2023/01/26 17:06:55;;;;;;;;;;;;;;;;;;5019047;28;19913;-78
2023/01/26 17:09:22;;;;;;;;;;;;;;;;;;5012993;28;19913;-77
2023/01/26 17:11:47;;;;;;;;;;;;;;;;;;5019717;28;20193;-78
2023/01/26 17:14:12;;;;;;;;;;;;;;;;;;5021382;28;19967;-77
2023/01/26 17:16:37;;;;;;;;;;;;;;;;;;5014564;28;20346;-77
2023/01/26 17:19:03;;;;;;;;;;;;;;;;;;5018105;28;20272;-77
2023/01/26 17:21:28;;;;;;;;;;;;;;;;;;5022601;28;20295;-78
2023/01/26 17:23:53;;;;;;;;;;;;;;;;;;5021548;28;20375;-77